Time;durP1;ratioP1;P1;durP2;ratioP2;P2;SDS_P1;SDS_P2;PMS_P1;PMS_P2;Temp;Humidity;BMP_temperature;BMP_pressure;BME280_temperature;BME280_humidity;BME280_pressure;Samples;Min_cycle;Max_cycle;Signal;HPM_P1;HPM_P2
2022/02/06 00:00:06;;;;;;;120.05;57.67;;;;;;;4.50;69.57;100593.56;5081453;28;20059;-21
2022/02/06 00:02:35;;;;;;;93.10;47.80;;;;;;;4.13;70.16;100594.88;5087158;28;20059;-20
2022/02/06 00:05:01;;;;;;;85.45;44.53;;;;;;;4.26;70.55;100589.91;5087233;28;20024;-20
2022/02/06 00:07:27;;;;;;;74.25;43.22;;;;;;;4.52;69.85;100607.44;5086671;28;20697;-21
2022/02/06 00:09:52;;;;;;;81.15;42.83;;;;;;;4.29;69.40;100588.75;5086762;28;20036;-20
2022/02/06 00:12:18;;;;;;;88.20;42.22;;;;;;;4.50;69.57;100597.03;5068486;28;20035;-20
2022/02/06 00:14:43;;;;;;;86.35;42.00;;;;;;;4.27;70.21;100602.16;5069080;28;20028;-20
2022/02/06 00:17:09;;;;;;;77.35;43.08;;;;;;;4.29;70.37;100613.38;5086793;28;20070;-20
2022/02/06 00:19:35;;;;;;;83.07;42.75;;;;;;;4.30;69.59;100599.16;5068417;28;20414;-20
2022/02/06 00:22:03;;;;;;;78.88;40.78;;;;;;;4.50;69.01;100609.41;5052357;28;20095;-20
2022/02/06 00:24:40;;;;;;;81.70;42.67;;;;;;;4.56;69.69;100619.31;5066462;28;20032;-21
2022/02/06 00:27:11;;;;;;;84.47;44.40;;;;;;;4.55;69.07;100622.94;5050528;28;20047;-20
2022/02/06 00:29:52;;;;;;;87.18;43.95;;;;;;;4.37;70.20;100623.09;5066582;28;20037;-20
2022/02/06 00:32:31;;;;;;;88.10;42.80;;;;;;;4.58;69.67;100630.53;5066734;28;20127;-21
2022/02/06 00:40:38;;;;;;;93.03;43.83;;;;;;;4.09;70.86;100625.22;5070220;28;20043;-20
2022/02/06 00:43:04;;;;;;;79.90;42.50;;;;;;;4.16;70.29;100634.13;5070323;28;20058;-21
2022/02/06 00:45:29;;;;;;;72.45;39.17;;;;;;;3.82;70.89;100620.06;5069827;28;20472;-21
2022/02/06 00:47:55;;;;;;;53.13;32.83;;;;;;;3.95;72.77;100645.97;5070181;28;20470;-20
2022/02/06 00:50:20;;;;;;;56.78;31.25;;;;;;;3.71;73.05;100643.25;5070447;28;20036;-20
2022/02/06 00:53:00;;;;;;;53.40;31.58;;;;;;;3.77;73.38;100639.97;5070105;28;20032;-20
2022/02/06 00:55:26;;;;;;;53.33;31.63;;;;;;;4.07;72.17;100635.13;5069682;28;20484;-21
2022/02/06 00:57:51;;;;;;;43.20;25.63;;;;;;;4.21;71.85;100640.56;5069822;28;20043;-20
2022/02/06 01:00:17;;;;;;;69.20;34.35;;;;;;;4.31;70.93;100632.50;5069642;28;20052;-21
2022/02/06 01:02:42;;;;;;;48.78;23.85;;;;;;;4.12;71.16;100635.44;5069922;28;20120;-20
2022/02/06 01:05:08;;;;;;;34.17;18.33;;;;;;;4.07;71.53;100632.47;5069879;28;20040;-20
2022/02/06 01:07:33;;;;;;;38.00;21.45;;;;;;;4.05;71.91;100629.19;5069531;28;20036;-20
2022/02/06 01:09:59;;;;;;;58.95;31.15;;;;;;;3.99;71.49;100623.53;5069900;28;20028;-20
2022/02/06 01:12:28;;;;;;;56.70;32.28;;;;;;;3.72;71.99;100629.06;5069308;28;20110;-21
2022/02/06 01:15:19;;;;;;;66.78;35.30;;;;;;;3.63;72.17;100631.69;5052242;28;20093;-20
2022/02/06 01:17:49;;;;;;;68.75;35.20;;;;;;;3.35;72.56;100627.59;5079272;28;20079;-21
2022/02/06 01:20:22;;;;;;;66.10;36.30;;;;;;;3.52;71.66;100633.81;5073188;28;20565;-21
2022/02/06 01:22:56;;;;;;;68.75;35.95;;;;;;;3.11;73.34;100604.63;5072628;28;20042;-20
2022/02/06 01:25:37;;;;;;;70.72;35.03;;;;;;;3.16;72.96;100612.88;5084709;28;20032;-20
2022/02/06 01:28:11;;;;;;;63.90;34.17;;;;;;;3.04;73.87;100622.03;5079220;28;20181;-22
2022/02/06 01:30:52;;;;;;;53.08;29.48;;;;;;;3.42;72.98;100641.81;5078239;28;20029;-20
2022/02/06 01:33:36;;;;;;;47.75;25.60;;;;;;;3.49;73.56;100640.19;5077879;28;20103;-21
2022/02/06 01:38:35;;;;;;;29.60;18.75;;;;;;;4.13;73.87;100640.56;5081003;28;20093;-21
2022/02/06 01:41:09;;;;;;;15.20;9.00;;;;;;;4.43;74.14;100639.13;5060416;28;20141;-21
2022/02/06 01:43:44;;;;;;;14.77;9.23;;;;;;;4.65;72.77;100620.94;5085345;28;20035;-20
2022/02/06 02:47:48;;;;;;;10.25;5.80;;;;;;;5.96;65.30;100635.56;5072771;28;20032;-21
2022/02/06 02:50:19;;;;;;;11.48;5.78;;;;;;;6.06;65.03;100657.34;5070222;28;20117;-20
2022/02/06 02:55:23;;;;;;;9.95;5.32;;;;;;;5.97;64.98;100664.53;5088122;28;20716;-20
2022/02/06 03:02:51;;;;;;;11.32;5.63;;;;;;;5.83;65.22;100674.00;5087753;28;20051;-20
2022/02/06 03:05:17;;;;;;;10.13;5.68;;;;;;;5.78;65.18;100670.22;5087531;28;20104;-20
2022/02/06 03:07:42;;;;;;;11.10;5.28;;;;;;;5.71;65.46;100642.81;5087851;28;20554;-21
2022/02/06 03:10:09;;;;;;;9.32;5.13;;;;;;;5.77;65.50;100668.56;5087762;28;20137;-21
2022/02/06 03:12:35;;;;;;;12.00;5.18;;;;;;;5.86;64.73;100664.88;5069624;28;20024;-20
2022/02/06 03:15:19;;;;;;;10.65;5.90;;;;;;;5.81;65.41;100654.00;5069554;28;20097;-21
2022/02/06 03:17:56;;;;;;;12.35;5.90;;;;;;;5.75;65.53;100654.69;5087461;28;20039;-21
2022/02/06 03:20:22;;;;;;;9.48;5.47;;;;;;;5.79;65.21;100653.34;5087428;28;20051;-20
2022/02/06 03:22:51;;;;;;;10.30;5.60;;;;;;;5.90;64.88;100674.13;5069410;28;20039;-20
2022/02/06 03:25:19;;;;;;;10.45;6.10;;;;;;;5.83;65.55;100665.25;5087174;28;20035;-21
2022/02/06 03:27:46;;;;;;;10.18;5.65;;;;;;;5.91;65.29;100667.84;5087336;28;20051;-20
2022/02/06 03:30:11;;;;;;;11.23;6.22;;;;;;;6.01;65.01;100655.25;5087493;28;20032;-21
2022/02/06 03:32:37;;;;;;;10.80;6.13;;;;;;;6.06;64.19;100675.06;5069372;28;20030;-21
2022/02/06 03:35:03;;;;;;;9.48;5.68;;;;;;;6.08;64.06;100686.31;5087206;28;20028;-22
2022/02/06 03:37:28;;;;;;;10.98;5.90;;;;;;;6.20;63.31;100682.28;5087195;28;20581;-20
2022/02/06 03:39:55;;;;;;;10.95;6.70;;;;;;;6.01;64.28;100689.66;5087183;28;20043;-20
2022/02/06 03:42:23;;;;;;;12.82;6.55;;;;;;;5.86;64.51;100678.13;5086946;28;20024;-21
2022/02/06 03:44:52;;;;;;;19.35;10.77;;;;;;;5.48;65.61;100680.59;5087154;28;20551;-20
2022/02/06 03:47:24;;;;;;;17.02;9.82;;;;;;;5.07;66.97;100683.34;5086944;28;20473;-20
2022/02/06 03:50:03;;;;;;;14.05;8.88;;;;;;;4.66;68.57;100693.94;5054005;28;20032;-24
2022/02/06 03:52:35;;;;;;;12.98;8.45;;;;;;;4.69;68.60;100700.69;5087013;28;20024;-21
2022/02/06 03:55:01;;;;;;;13.48;8.27;;;;;;;4.71;68.98;100698.72;5086831;28;20031;-21
2022/02/06 03:57:26;;;;;;;13.43;7.80;;;;;;;4.59;69.57;100695.56;5087072;28;20032;-21
2022/02/06 03:59:52;;;;;;;89.82;38.97;;;;;;;4.62;69.12;100700.53;5086848;28;20056;-20
2022/02/06 04:02:17;;;;;;;40.05;17.25;;;;;;;4.51;69.91;100692.91;5087327;28;20028;-20
2022/02/06 04:04:43;;;;;;;60.35;26.48;;;;;;;4.79;68.92;100696.88;5068992;28;20039;-20
2022/02/06 04:07:12;;;;;;;30.60;14.55;;;;;;;4.80;68.75;100698.56;5087079;28;20036;-20
2022/02/06 04:09:51;;;;;;;15.43;8.32;;;;;;;4.75;69.48;100700.03;5086622;28;20031;-20
2022/02/06 04:12:18;;;;;;;13.57;7.55;;;;;;;4.89;68.19;100701.19;5074636;28;20035;-21
2022/02/06 04:15:03;;;;;;;12.35;8.25;;;;;;;4.38;69.76;100694.22;5073167;28;20032;-21
2022/02/06 04:17:30;;;;;;;17.45;10.10;;;;;;;4.36;70.92;100705.94;5090884;28;20036;-20
2022/02/06 04:19:56;;;;;;;22.40;12.90;;;;;;;4.24;70.49;100702.78;5090916;28;20036;-20
2022/02/06 04:22:22;;;;;;;15.50;8.82;;;;;;;4.37;70.65;100702.31;5091037;28;20028;-21
2022/02/06 04:24:47;;;;;;;15.57;8.82;;;;;;;4.41;70.58;100709.75;5091076;28;20046;-20
2022/02/06 04:27:13;;;;;;;14.60;8.32;;;;;;;4.39;70.54;100706.47;5090960;28;20035;-20
2022/02/06 04:29:38;;;;;;;15.48;8.43;;;;;;;4.35;70.76;100691.94;5090830;28;20028;-20
2022/02/06 04:32:04;;;;;;;12.13;7.72;;;;;;;4.36;69.30;100698.84;5090858;28;20048;-21
2022/02/06 04:34:30;;;;;;;13.52;8.60;;;;;;;4.43;69.77;100710.44;5090519;28;20032;-20
2022/02/06 05:22:55;;;;;;;28.37;17.70;;;;;;;3.65;69.67;100765.22;5076623;28;20028;-20
2022/02/06 05:30:44;;;;;;;23.15;14.57;;;;;;;4.10;68.74;100788.69;5069648;28;20036;-21
2022/02/06 05:33:09;;;;;;;21.60;13.20;;;;;;;4.06;69.02;100789.19;5085543;28;20056;-20
2022/02/06 05:35:36;;;;;;;22.80;12.55;;;;;;;3.92;69.03;100788.78;5089651;28;20167;-20
2022/02/06 05:38:02;;;;;;;22.30;13.35;;;;;;;3.32;70.53;100789.56;5089679;28;20477;-22
2022/02/06 05:40:27;;;;;;;30.17;19.80;;;;;;;3.39;71.02;100774.81;5071503;28;20032;-20
2022/02/06 05:42:52;;;;;;;40.63;27.98;;;;;;;3.16;71.72;100795.53;5089716;28;20073;-22
2022/02/06 05:45:20;;;;;;;45.67;32.15;;;;;;;3.59;70.43;100796.50;5089186;28;20415;-20
2022/02/06 05:47:46;;;;;;;39.50;25.65;;;;;;;3.37;70.24;100799.66;5089726;28;20028;-20
2022/02/06 05:50:15;;;;;;;61.28;28.67;;;;;;;2.99;70.89;100804.31;5089767;28;20735;-21
2022/02/06 05:52:40;;;;;;;56.00;28.42;;;;;;;3.37;70.30;100805.78;5089433;28;20078;-20
2022/02/06 05:55:07;;;;;;;46.25;26.17;;;;;;;3.57;70.05;100805.56;5070752;28;20556;-22
2022/02/06 05:57:32;;;;;;;58.90;30.65;;;;;;;3.55;69.86;100787.25;5088821;28;20032;-21
2022/02/06 05:59:58;;;;;;;61.53;36.90;;;;;;;3.88;69.16;100807.72;5088989;28;20056;-21
2022/02/06 06:02:23;;;;;;;65.22;39.35;;;;;;;3.92;68.80;100799.31;5080940;28;20028;-21
2022/02/06 06:04:49;;;;;;;69.20;41.78;;;;;;;4.18;68.02;100811.66;5070935;28;20038;-21
2022/02/06 06:07:15;;;;;;;71.57;43.20;;;;;;;4.03;68.37;100808.81;5070437;28;20039;-21
2022/02/06 06:09:40;;;;;;;90.97;46.30;;;;;;;3.92;68.46;100831.00;5070908;28;20035;-20
2022/02/06 06:12:08;;;;;;;57.58;32.92;;;;;;;3.71;69.49;100827.91;5088721;28;20140;-20
2022/02/06 06:14:34;;;;;;;57.22;34.72;;;;;;;3.52;69.94;100832.41;5088537;28;20036;-20
2022/02/06 06:16:59;;;;;;;51.85;30.48;;;;;;;3.46;70.75;100834.84;5088752;28;20518;-21
2022/02/06 06:19:25;;;;;;;36.60;23.92;;;;;;;3.57;70.25;100838.03;5088460;28;20047;-21
2022/02/06 06:21:55;;;;;;;35.53;22.10;;;;;;;3.50;71.00;100844.91;5070352;28;20755;-21
2022/02/06 06:24:23;;;;;;;50.33;21.58;;;;;;;3.68;70.74;100846.69;5071239;28;20039;-21
2022/02/06 06:26:49;;;;;;;26.52;16.67;;;;;;;3.54;71.53;100843.63;5088609;28;20515;-22
2022/02/06 06:29:14;;;;;;;22.83;13.93;;;;;;;3.81;70.55;100845.28;5087979;28;20075;-22
2022/02/06 06:31:40;;;;;;;21.40;12.13;;;;;;;3.61;72.08;100849.09;5070390;28;20084;-21
2022/02/06 06:34:05;;;;;;;18.25;11.88;;;;;;;4.04;71.36;100850.03;5087573;28;20028;-21
2022/02/06 06:36:32;;;;;;;35.60;24.65;;;;;;;3.74;71.70;100840.78;5070152;28;20031;-20
2022/02/06 06:38:58;;;;;;;20.23;13.93;;;;;;;4.34;70.54;100846.06;5088296;28;20056;-21
2022/02/06 06:41:23;;;;;;;26.17;15.93;;;;;;;4.47;70.29;100852.72;5088079;28;20059;-21
2022/02/06 06:43:49;;;;;;;46.67;29.60;;;;;;;5.00;68.76;100848.88;5087763;28;20411;-21
2022/02/06 06:46:14;;;;;;;210.82;107.90;;;;;;;5.07;69.00;100849.91;5088346;28;20028;-20
2022/02/06 06:48:40;;;;;;;158.27;97.50;;;;;;;5.13;68.11;100846.59;5088251;28;20028;-20
2022/02/06 06:51:06;;;;;;;287.63;205.93;;;;;;;5.20;69.03;100863.44;5088074;28;20028;-20
2022/02/06 06:53:33;;;;;;;220.02;144.63;;;;;;;5.21;68.33;100858.97;5086974;28;20028;-21
2022/02/06 06:56:04;;;;;;;91.53;71.63;;;;;;;5.47;68.06;100873.88;5087476;28;20039;-21
2022/02/06 06:58:39;;;;;;;66.03;44.15;;;;;;;5.61;66.97;100865.28;5087967;28;20058;-21
2022/02/06 07:03:31;;;;;;;41.63;24.00;;;;;;;6.12;64.88;100867.69;5087629;28;20121;-21
2022/02/06 07:05:57;;;;;;;53.75;30.55;;;;;;;6.08;64.84;100855.78;5086822;28;20105;-20
2022/02/06 07:08:22;;;;;;;66.93;39.65;;;;;;;6.42;64.83;100874.88;5087775;28;20562;-20
2022/02/06 07:10:48;;;;;;;54.17;32.60;;;;;;;6.37;64.35;100882.50;5087476;28;20032;-20
2022/02/06 07:13:13;;;;;;;41.20;23.75;;;;;;;6.41;64.46;100883.81;5088272;28;20835;-20
2022/02/06 07:15:40;;;;;;;65.63;37.20;;;;;;;6.27;66.02;100873.94;5087120;28;20479;-20
2022/02/06 07:18:05;;;;;;;72.75;42.03;;;;;;;6.42;66.36;100882.00;5087602;28;20407;-20
2022/02/06 07:20:33;;;;;;;66.43;38.65;;;;;;;6.40;66.12;100882.16;5087601;28;20035;-20
2022/02/06 07:22:59;;;;;;;59.90;34.77;;;;;;;6.19;67.13;100872.16;5087603;28;20028;-20
2022/02/06 07:25:26;;;;;;;56.22;30.98;;;;;;;6.30;66.87;100889.50;5085887;28;20089;-20
2022/02/06 07:27:51;;;;;;;49.47;28.67;;;;;;;6.47;66.38;100878.84;5087785;28;20085;-20
2022/02/06 07:30:18;;;;;;;45.05;28.25;;;;;;;6.81;64.53;100886.47;5087902;28;20043;-20
2022/02/06 07:32:44;;;;;;;57.85;35.63;;;;;;;6.96;64.42;100884.72;5087374;28;20829;-21
2022/02/06 07:35:11;;;;;;;41.72;26.08;;;;;;;6.97;64.69;100872.31;5087540;28;20042;-21
2022/02/06 07:37:37;;;;;;;39.70;24.88;;;;;;;7.36;63.41;100892.59;5087212;28;20036;-20
2022/02/06 07:40:04;;;;;;;43.40;28.23;;;;;;;7.49;62.36;100892.81;5087111;28;20511;-21
2022/02/06 07:42:29;;;;;;;23.52;14.85;;;;;;;7.66;62.22;100882.88;5087558;28;20114;-20
2022/02/06 07:44:55;;;;;;;19.70;12.15;;;;;;;8.19;60.32;100898.78;5085529;28;20478;-21
2022/02/06 07:47:23;;;;;;;25.42;14.75;;;;;;;8.28;58.85;100896.88;5086962;28;20081;-21
2022/02/06 07:49:51;;;;;;;20.65;12.77;;;;;;;8.05;58.72;100890.66;5087181;28;20030;-21
2022/02/06 07:52:18;;;;;;;19.60;11.50;;;;;;;8.10;58.83;100895.41;5087074;28;20407;-21
2022/02/06 07:54:44;;;;;;;18.33;11.70;;;;;;;8.35;58.56;100885.31;5087000;28;20075;-20
2022/02/06 07:57:09;;;;;;;32.38;21.00;;;;;;;8.53;60.55;100894.78;5087004;28;20028;-21
2022/02/06 07:59:35;;;;;;;28.80;16.20;;;;;;;8.04;61.17;100888.97;5086716;28;20052;-21
2022/02/06 08:02:01;;;;;;;28.23;19.85;;;;;;;8.00;62.56;100881.56;5087092;28;20060;-20
2022/02/06 08:04:27;;;;;;;30.67;17.65;;;;;;;7.91;64.43;100872.84;5068309;28;20093;-20
2022/02/06 08:06:53;;;;;;;28.92;16.73;;;;;;;7.99;63.11;100878.09;5086592;28;20036;-21
2022/02/06 08:09:26;;;;;;;24.42;14.65;;;;;;;7.73;61.79;100883.00;5085896;28;20036;-20
2022/02/06 08:11:51;;;;;;;24.23;16.10;;;;;;;7.79;61.98;100876.97;5086211;28;20550;-21
2022/02/06 08:14:50;;;;;;;29.02;17.00;;;;;;;7.94;63.07;100885.75;5086419;28;20036;-20
2022/02/06 08:17:03;;;;;;;29.13;17.40;;;;;;;8.26;61.11;100881.13;5086344;28;20028;-20
2022/02/06 08:19:29;;;;;;;30.20;15.93;;;;;;;8.35;59.88;100868.56;5067084;28;20086;-20
2022/02/06 08:21:55;;;;;;;25.15;15.32;;;;;;;8.11;61.49;100874.97;5086543;28;20032;-19
2022/02/06 08:24:20;;;;;;;22.88;14.73;;;;;;;8.52;60.54;100880.69;5086380;28;20058;-20
2022/02/06 08:26:45;;;;;;;22.35;13.68;;;;;;;8.91;58.78;100886.63;5086526;28;20031;-21
2022/02/06 08:29:11;;;;;;;23.60;14.45;;;;;;;9.15;57.59;100877.47;5086558;28;20036;-21
2022/02/06 08:31:37;;;;;;;22.33;14.13;;;;;;;9.04;57.02;100870.84;5086080;28;20031;-20
2022/02/06 08:34:03;;;;;;;22.10;14.68;;;;;;;9.02;58.22;100880.84;5086204;28;20502;-21
2022/02/06 08:36:29;;;;;;;20.52;12.55;;;;;;;8.71;59.06;100879.28;5086963;28;20028;-20
2022/02/06 08:38:54;;;;;;;18.85;11.75;;;;;;;8.59;58.34;100872.78;5086229;28;20032;-21
2022/02/06 08:41:20;;;;;;;19.08;11.90;;;;;;;9.00;57.88;100886.34;5086114;28;20558;-21
2022/02/06 08:43:45;;;;;;;16.48;10.75;;;;;;;8.98;56.74;100892.88;5086323;28;20100;-20
2022/02/06 08:46:10;;;;;;;20.83;11.70;;;;;;;9.24;56.89;100895.81;5086079;28;20801;-21
2022/02/06 08:48:36;;;;;;;18.52;10.82;;;;;;;9.14;57.83;100892.63;5086179;28;20396;-21
2022/02/06 08:51:01;;;;;;;18.38;10.82;;;;;;;9.17;57.29;100889.56;5086039;28;20032;-21
2022/02/06 08:53:27;;;;;;;18.65;11.48;;;;;;;9.78;55.74;100898.94;5079527;28;20028;-22
2022/02/06 08:55:52;;;;;;;15.98;10.57;;;;;;;9.92;57.60;100898.03;5080060;28;20584;-20
2022/02/06 08:58:18;;;;;;;17.75;10.48;;;;;;;9.47;56.52;100892.13;5085794;28;20149;-21
2022/02/06 09:00:43;;;;;;;16.08;10.43;;;;;;;9.90;55.06;100894.72;5079122;28;20032;-20
2022/02/06 09:03:09;;;;;;;16.10;10.55;;;;;;;9.69;56.38;100897.44;5087933;28;20040;-21
2022/02/06 09:05:35;;;;;;;15.93;10.20;;;;;;;9.99;56.29;100896.25;5089382;28;20024;-20
2022/02/06 09:08:02;;;;;;;14.68;10.60;;;;;;;10.13;54.36;100891.78;5071663;28;20594;-20
2022/02/06 09:10:27;;;;;;;16.45;10.45;;;;;;;10.04;54.25;100856.50;5089851;28;20031;-20
2022/02/06 09:12:54;;;;;;;17.15;11.02;;;;;;;10.31;54.69;100871.84;5071807;28;20047;-21
2022/02/06 09:15:21;;;;;;;17.08;10.85;;;;;;;10.53;55.30;100870.72;5089590;28;20047;-20
2022/02/06 09:17:46;;;;;;;15.90;10.18;;;;;;;10.40;53.72;100876.81;5071556;28;20036;-22
2022/02/06 09:20:12;;;;;;;14.65;10.25;;;;;;;10.78;51.84;100884.34;5089878;28;20031;-20
2022/02/06 09:22:40;;;;;;;19.80;10.15;;;;;;;10.77;52.44;100874.72;5089814;28;20488;-20
2022/02/06 09:25:06;;;;;;;17.75;10.85;;;;;;;10.87;51.50;100887.69;5089724;28;20032;-21
2022/02/06 09:27:35;;;;;;;17.45;11.02;;;;;;;11.24;53.16;100877.50;5089270;28;20126;-22
2022/02/06 09:30:01;;;;;;;61.50;48.10;;;;;;;11.26;49.94;100860.25;5086667;28;20756;-20
2022/02/06 09:37:18;;;;;;;18.50;12.15;;;;;;;12.15;48.55;100878.72;5059878;28;20035;-21
2022/02/06 09:39:43;;;;;;;18.30;11.13;;;;;;;11.88;51.52;100867.22;5078816;28;20035;-21
2022/02/06 09:42:09;;;;;;;40.17;23.15;;;;;;;11.85;49.16;100847.09;5077019;28;20476;-21
2022/02/06 09:44:34;;;;;;;29.90;19.50;;;;;;;12.15;49.04;100857.34;5060665;28;20420;-20
2022/02/06 09:47:00;;;;;;;20.95;13.07;;;;;;;12.27;48.28;100855.66;5060120;28;20029;-21
2022/02/06 09:49:30;;;;;;;19.98;12.95;;;;;;;12.44;47.74;100854.16;5083179;28;21452;-20
2022/02/06 09:51:55;;;;;;;19.52;11.23;;;;;;;12.41;49.58;100846.53;5041357;28;20507;-22
2022/02/06 09:54:23;;;;;;;19.38;12.20;;;;;;;12.68;47.79;100838.41;5078435;28;20053;-22
2022/02/06 09:56:51;;;;;;;15.00;11.10;;;;;;;12.96;46.99;100842.59;5061679;28;20039;-21
2022/02/06 09:59:20;;;;;;;23.80;15.45;;;;;;;13.29;44.36;100841.53;5077292;28;20044;-21
2022/02/06 10:01:55;;;;;;;36.83;27.92;;;;;;;13.66;44.52;100837.94;5077305;28;20110;-20
2022/02/06 10:04:23;;;;;;;14.60;10.52;;;;;;;13.60;45.17;100822.72;5076657;28;20031;-20
2022/02/06 10:06:57;;;;;;;22.35;14.00;;;;;;;13.96;44.51;100826.53;5083185;28;20595;-20
2022/02/06 10:09:30;;;;;;;35.15;21.90;;;;;;;14.24;44.50;100819.81;5088423;28;20558;-21
2022/02/06 10:11:56;;;;;;;64.80;59.25;;;;;;;14.58;41.97;100817.56;5055183;28;20028;-21
2022/02/06 10:14:22;;;;;;;19.45;15.05;;;;;;;15.03;40.31;100804.50;5088288;28;20467;-21
2022/02/06 10:16:49;;;;;;;16.02;11.27;;;;;;;14.93;39.19;100808.81;5053809;28;20114;-21
2022/02/06 10:19:15;;;;;;;10.50;7.47;;;;;;;14.75;38.21;100785.53;5088354;28;20027;-22
2022/02/06 10:21:42;;;;;;;11.15;7.13;;;;;;;15.21;37.91;100794.75;5088580;28;20100;-21
2022/02/06 10:24:17;;;;;;;12.25;7.47;;;;;;;15.14;39.41;100797.56;5088564;28;20119;-22
2022/02/06 10:27:03;;;;;;;12.27;7.82;;;;;;;14.87;39.47;100783.69;5088260;28;20032;-22
2022/02/06 10:29:40;;;;;;;13.65;8.77;;;;;;;14.72;39.38;100781.44;5088323;28;20123;-21
2022/02/06 10:32:06;;;;;;;9.70;6.85;;;;;;;15.05;38.83;100780.13;5088471;28;20024;-22
2022/02/06 10:34:36;;;;;;;9.40;5.88;;;;;;;14.96;37.81;100776.94;5088374;28;20043;-21
2022/02/06 10:37:18;;;;;;;7.90;4.57;;;;;;;15.37;34.94;100772.56;5088206;28;20028;-21
2022/02/06 10:40:05;;;;;;;9.30;7.32;;;;;;;15.98;34.46;100762.38;5088402;28;20064;-21
2022/02/06 10:42:33;;;;;;;6.63;4.10;;;;;;;15.90;34.46;100765.44;5088443;28;20035;-20
2022/02/06 10:45:20;;;;;;;8.45;4.70;;;;;;;16.07;34.65;100760.94;5087983;28;21059;-21
2022/02/06 10:47:50;;;;;;;40.13;26.08;;;;;;;16.29;34.07;100746.84;5088361;28;20032;-20
2022/02/06 10:50:36;;;;;;;12.48;8.15;;;;;;;16.86;34.63;100752.19;5088283;28;20028;-21
2022/02/06 10:53:09;;;;;;;32.03;26.05;;;;;;;16.28;34.68;100742.50;5087935;28;20451;-21
2022/02/06 10:55:34;;;;;;;18.17;11.63;;;;;;;15.92;39.68;100751.75;5087819;28;20466;-22
2022/02/06 10:58:02;;;;;;;13.45;9.30;;;;;;;16.39;38.82;100741.63;5086133;28;20044;-20
2022/02/06 11:00:32;;;;;;;13.68;10.07;;;;;;;16.72;39.42;100723.09;5069974;28;20040;-21
2022/02/06 11:03:04;;;;;;;14.48;10.10;;;;;;;16.64;38.44;100727.00;5088170;28;20036;-20
2022/02/06 11:05:48;;;;;;;14.80;9.95;;;;;;;16.67;39.67;100721.94;5070393;28;20031;-21
2022/02/06 11:08:22;;;;;;;13.63;8.32;;;;;;;15.70;38.14;100732.69;5070357;28;20040;-21
2022/02/06 11:10:54;;;;;;;14.30;10.95;;;;;;;16.53;38.34;100725.16;5070711;28;20058;-20
2022/02/06 11:13:19;;;;;;;18.92;10.95;;;;;;;16.18;37.35;100718.06;5069100;28;20060;-21
2022/02/06 11:15:46;;;;;;;20.67;13.85;;;;;;;16.46;38.55;100712.69;5087850;28;20031;-20
2022/02/06 11:18:14;;;;;;;11.77;8.30;;;;;;;16.50;37.75;100701.44;5087383;28;20082;-20
2022/02/06 11:20:51;;;;;;;13.57;8.07;;;;;;;16.66;37.36;100712.22;5086932;28;20055;-21
2022/02/06 11:23:17;;;;;;;18.10;10.95;;;;;;;17.10;37.24;100717.00;5087464;28;20030;-20
2022/02/06 11:25:42;;;;;;;15.18;8.30;;;;;;;17.47;35.54;100708.38;5084799;28;20044;-20
2022/02/06 11:28:08;;;;;;;13.38;8.00;;;;;;;16.81;37.66;100683.94;5068282;28;20024;-21
2022/02/06 11:30:34;;;;;;;11.88;7.32;;;;;;;17.13;34.37;100703.03;5068241;28;20031;-21
2022/02/06 11:32:59;;;;;;;12.15;7.95;;;;;;;17.62;34.08;100700.47;5086758;28;20142;-20
2022/02/06 11:35:28;;;;;;;12.52;7.55;;;;;;;17.93;33.34;100695.47;5067565;28;20028;-21
2022/02/06 11:44:16;;;;;;;15.00;7.30;;;;;;;17.55;34.83;100683.69;4994137;28;20077;-21
2022/02/06 11:47:00;;;;;;;11.13;7.43;;;;;;;17.89;34.08;100680.06;5043709;28;20051;-21
2022/02/06 11:49:26;;;;;;;10.75;6.57;;;;;;;17.00;36.91;100676.41;5067195;28;20029;-21
2022/02/06 11:51:51;;;;;;;9.43;6.72;;;;;;;17.94;33.58;100678.25;5032242;28;20044;-20
2022/02/06 11:54:45;;;;;;;10.27;6.75;;;;;;;18.37;31.04;100654.06;5074232;28;20407;-20
2022/02/06 12:00:03;;;;;;;6.35;3.28;;;;;;;18.85;26.99;100663.97;5087086;28;20052;-20
2022/02/06 12:02:30;;;;;;;5.70;3.70;;;;;;;19.56;25.88;100665.47;5086079;28;20616;-20
2022/02/06 12:05:17;;;;;;;5.53;2.50;;;;;;;19.66;27.44;100657.38;5086936;28;20035;-21
2022/02/06 12:07:51;;;;;;;15.35;8.38;;;;;;;19.38;25.33;100650.50;5086916;28;20111;-21
2022/02/06 12:10:21;;;;;;;7.43;2.88;;;;;;;19.09;25.78;100624.94;5086853;28;20040;-20
2022/02/06 12:12:49;;;;;;;6.88;2.90;;;;;;;18.75;26.22;100650.34;5086806;28;20035;-20
2022/02/06 12:15:26;;;;;;;5.60;2.65;;;;;;;18.96;25.89;100626.19;5085260;28;20024;-21
2022/02/06 12:18:12;;;;;;;6.55;2.80;;;;;;;18.74;25.85;100631.72;5069839;28;20032;-22
2022/02/06 12:20:51;;;;;;;5.85;2.95;;;;;;;19.25;25.30;100635.56;5086769;28;20039;-20
2022/02/06 12:23:39;;;;;;;8.50;3.17;;;;;;;20.30;25.05;100639.16;5086326;28;20089;-21
2022/02/06 12:26:31;;;;;;;4.45;2.72;;;;;;;20.21;24.43;100638.06;5086588;28;20052;-20
2022/02/06 12:29:02;;;;;;;5.20;2.80;;;;;;;19.60;26.63;100625.16;5073352;28;20036;-20
2022/02/06 12:31:29;;;;;;;5.22;2.72;;;;;;;19.70;26.54;100629.81;5087350;28;20035;-22
2022/02/06 12:39:26;;;;;;;4.82;2.67;;;;;;;20.16;24.02;100602.84;5069410;28;20050;-20
2022/02/06 12:41:53;;;;;;;4.93;2.55;;;;;;;19.92;25.84;100591.72;5069215;28;20036;-20
2022/02/06 12:44:19;;;;;;;5.57;2.78;;;;;;;19.42;26.49;100604.81;5067633;28;20032;-21
2022/02/06 12:46:46;;;;;;;5.50;2.60;;;;;;;19.81;26.49;100588.19;5069835;28;20035;-21
2022/02/06 12:49:12;;;;;;;6.13;3.17;;;;;;;20.38;24.44;100595.28;5071293;28;20131;-22
2022/02/06 12:51:37;;;;;;;4.55;2.70;;;;;;;19.78;25.39;100594.94;5071855;28;20112;-21
2022/02/06 12:54:05;;;;;;;5.45;2.80;;;;;;;20.42;23.71;100596.34;5090147;28;20027;-21
2022/02/06 12:56:31;;;;;;;;;;;;;;;20.37;22.33;100601.78;5072004;28;20121;-23
2022/02/06 12:58:59;;;;;;;4.70;2.47;;;;;;;21.44;23.42;100598.06;5089413;28;19923;-21
2022/02/06 13:01:44;;;;;;;4.25;2.50;;;;;;;21.43;22.24;100598.34;5089420;28;20047;-22
2022/02/06 13:04:15;;;;;;;5.75;2.88;;;;;;;21.14;22.77;100579.97;5071751;28;20028;-21
2022/02/06 13:06:42;;;;;;;6.72;3.47;;;;;;;21.80;22.19;100576.16;5089482;28;20051;-21
2022/02/06 13:09:15;;;;;;;5.53;3.17;;;;;;;22.14;22.88;100583.50;5089408;28;20052;-21
2022/02/06 13:11:51;;;;;;;4.78;2.95;;;;;;;22.06;22.54;100584.94;5072331;28;20085;-21
2022/02/06 13:27:36;;;;;;;8.23;2.58;;;;;;;22.70;20.28;100579.53;5089135;28;20024;-21
2022/02/06 13:30:22;;;;;;;3.70;2.00;;;;;;;22.69;20.86;100580.63;5089099;28;20042;-21
2022/02/06 13:35:33;;;;;;;9.98;3.13;;;;;;;23.75;19.37;100571.44;5084373;28;20024;-21
2022/02/06 13:38:08;;;;;;;4.60;2.67;;;;;;;25.28;16.92;100555.47;5061547;28;20036;-21
2022/02/06 13:40:47;;;;;;;3.53;1.98;;;;;;;24.06;17.71;100555.47;5088640;28;20039;-20
2022/02/06 13:43:19;;;;;;;5.85;2.10;;;;;;;25.09;17.73;100553.66;5072395;28;20121;-21
2022/02/06 13:45:44;;;;;;;3.80;2.13;;;;;;;25.83;17.89;100549.84;5088871;28;20036;-20
2022/02/06 13:48:10;;;;;;;15.75;10.38;;;;;;;24.84;19.67;100552.22;5088881;28;20528;-19
2022/02/06 13:50:42;;;;;;;7.75;4.60;;;;;;;26.13;18.23;100547.50;5088575;28;20039;-21
2022/02/06 13:53:13;;;;;;;7.30;4.55;;;;;;;25.46;19.45;100547.13;5071138;28;20074;-21
2022/02/06 13:55:45;;;;;;;24.15;13.25;;;;;;;25.28;19.91;100547.28;5065319;28;20039;-20
2022/02/06 13:58:12;;;;;;;6.22;3.53;;;;;;;25.25;19.56;100541.31;5070156;28;20031;-21
2022/02/06 14:00:38;;;;;;;6.63;3.67;;;;;;;24.68;21.13;100538.06;5032952;28;20718;-22
2022/02/06 14:03:04;;;;;;;6.55;3.40;;;;;;;24.06;20.98;100530.94;5078907;28;20040;-21
2022/02/06 14:05:31;;;;;;;6.75;3.33;;;;;;;23.58;22.13;100533.84;5088076;28;20039;-20
2022/02/06 14:08:05;;;;;;;13.05;4.57;;;;;;;24.27;20.89;100533.31;5087724;28;20411;-21
2022/02/06 14:10:42;;;;;;;6.57;3.30;;;;;;;24.52;20.74;100531.28;5087270;28;20184;-20
2022/02/06 14:13:17;;;;;;;6.75;3.75;;;;;;;26.29;19.23;100535.06;5089015;28;20059;-20